Main page
METAR-TAF:

METAR-TAF

Airports :

George Bush Intercontinental Airport

Houston, Texas, United States

latitude: 29-59-33N, longitude: 095-21-50W, elevation: 29 m

Current weather observation

The report was made 27 minutes ago, at 00:53 UTC
Wind 6 kt from the North/Northeast
Temperature 23°C
Humidity 23%
Pressure 1007 hPa
Visibility: 16.1 km
Few clouds at a height of 25000 ft

METAR: KIAH 110053Z 02006KT 10SM FEW250 23/01 A2975 RMK AO2 SLP074 T02280011

Time: 20:20 (01:20 UTC)

Forecast

The report was made 2 hours and 0 minutes ago, at 23:20 UTC
Forecast valid from 11 at 00 UTC to 12 at 06 UTC
Wind 9 kt from the North
Visibility: 10 km
Clear sky
From 11 at 0600 UTC
Wind 5 kt from the Northeast
Visibility: 10 km
Clear sky
From 11 at 1700 UTC
Wind 8 kt from the South/Southeast
Visibility: 10 km
Clear sky

TAF: KIAH 102320Z 1100/1206 01009KT P6SM SKC FM110600 04005KT P6SM SKC FM111700 15008KT P6SM SKC

Weather observations and forecasts of more than 4000 airports (METAR and TAF reports).

The available stations are represented by yellow and red dots on the map.

Hover mouse over dot to see the name of the station.

Then click to see weather observations and forecasts.

To change the map : click on the green buttons with a black cross to zoom in, on the green button with a dash to zoom out, or on the green arrows for adjacent maps.


METAR-TAF: